Time;durP1;ratioP1;P1;durP2;ratioP2;P2;SDS_P1;SDS_P2;PMS_P1;PMS_P2;Temp;Humidity;BMP_temperature;BMP_pressure;BME280_temperature;BME280_humidity;BME280_pressure;Samples;Min_cycle;Max_cycle;Signal;HPM_P1;HPM_P2
2024/02/01 00:01:39;;;;;;;;;72.20;58.00;;;;;7.94;100.00;99652.03;6193873;28;96965;-58
2024/02/01 00:04:43;;;;;;;;;75.00;61.00;;;;;7.97;100.00;99650.81;6211234;28;96321;-60
2024/02/01 00:07:46;;;;;;;;;72.40;57.60;;;;;7.97;100.00;99646.28;6213278;28;96848;-61
2024/02/01 00:10:50;;;;;;;;;71.40;57.40;;;;;7.95;100.00;99644.81;6187675;28;96376;-60
2024/02/01 00:13:53;;;;;;;;;71.00;57.00;;;;;7.94;100.00;99643.16;6186314;28;96275;-61
2024/02/01 00:16:56;;;;;;;;;72.00;57.80;;;;;7.93;100.00;99636.94;6187385;28;96288;-61
2024/02/01 00:19:59;;;;;;;;;69.60;56.20;;;;;7.95;100.00;99628.72;6168107;28;96644;-58
2024/02/01 00:23:03;;;;;;;;;73.40;61.00;;;;;7.91;100.00;99619.38;6163436;28;96429;-58
2024/02/01 00:26:07;;;;;;;;;71.50;58.00;;;;;7.87;100.00;99610.81;6146475;28;96213;-56
2024/02/01 00:29:10;;;;;;;;;73.25;59.50;;;;;7.83;100.00;99607.69;6163237;28;96507;-56
2024/02/01 00:32:14;;;;;;;;;76.00;63.00;;;;;7.82;100.00;99595.28;6162454;28;96487;-57
2024/02/01 00:35:17;;;;;;;;;74.80;61.20;;;;;7.88;100.00;99585.66;6163077;28;96703;-57
2024/02/01 00:38:20;;;;;;;;;75.40;63.40;;;;;7.88;100.00;99577.59;6161975;28;96966;-57
2024/02/01 00:41:24;;;;;;;;;78.00;66.75;;;;;7.92;100.00;99578.06;6163151;28;96576;-57
2024/02/01 00:44:27;;;;;;;;;78.40;68.40;;;;;7.93;100.00;99575.19;6162194;28;96300;-57
2024/02/01 00:47:30;;;;;;;;;81.00;69.00;;;;;7.97;100.00;99559.53;6144239;28;96585;-57
2024/02/01 00:50:34;;;;;;;;;82.50;71.00;;;;;8.03;100.00;99556.94;6162429;28;96459;-57
2024/02/01 00:53:37;;;;;;;;;81.25;71.00;;;;;8.04;100.00;99552.38;6128701;28;97684;-57
2024/02/01 00:56:41;;;;;;;;;82.67;71.33;;;;;8.02;100.00;99549.88;6162647;28;96312;-57
2024/02/01 00:59:45;;;;;;;;;78.60;67.40;;;;;8.06;100.00;99540.41;6162280;28;96505;-57
2024/02/01 01:02:48;;;;;;;;;79.40;67.40;;;;;8.06;100.00;99535.06;6161248;28;96259;-57
2024/02/01 01:05:51;;;;;;;;;76.80;66.00;;;;;8.06;100.00;99532.38;6162537;28;96935;-57
2024/02/01 01:08:54;;;;;;;;;78.20;67.00;;;;;8.07;100.00;99533.19;6171173;28;96979;-57
2024/02/01 01:11:59;;;;;;;;;76.00;63.00;;;;;7.98;100.00;99507.50;6178409;28;96302;-57
2024/02/01 01:15:02;;;;;;;;;77.00;66.60;;;;;8.08;100.00;99526.81;6162377;28;96479;-57
2024/02/01 01:18:07;;;;;;;;;79.20;67.00;;;;;8.09;100.00;99517.75;6178043;28;96244;-57
2024/02/01 01:21:11;;;;;;;;;75.60;63.80;;;;;7.94;100.00;99493.63;6172743;28;96761;-57
2024/02/01 01:24:14;;;;;;;;;77.40;67.00;;;;;8.00;100.00;99510.84;6162433;28;96364;-57
2024/02/01 01:27:18;;;;;;;;;78.50;65.25;;;;;7.84;100.00;99480.50;6163534;28;96666;-57
2024/02/01 01:30:22;;;;;;;;;76.40;65.40;;;;;7.98;100.00;99502.13;6151165;28;96420;-57
2024/02/01 01:33:25;;;;;;;;;76.80;65.00;;;;;7.96;100.00;99496.13;6186388;28;96450;-57
2024/02/01 01:36:28;;;;;;;;;76.25;65.25;;;;;7.95;100.00;99484.56;6166890;28;96313;-57
2024/02/01 01:39:31;;;;;;;;;77.00;64.40;;;;;7.96;100.00;99477.34;6162219;28;96562;-57
2024/02/01 01:42:36;;;;;;;;;75.50;63.50;;;;;7.95;100.00;99479.19;6145349;28;98615;-57
2024/02/01 01:45:39;;;;;;;;;78.00;66.67;;;;;7.94;100.00;99463.25;6163779;28;97030;-56
2024/02/01 01:48:43;;;;;;;;;76.00;64.20;;;;;7.94;100.00;99465.94;6162138;28;96880;-57
2024/02/01 01:51:49;;;;;;;;;76.40;62.40;;;;;7.91;100.00;99458.28;6170938;28;97655;-57
2024/02/01 01:54:53;;;;;;;;;79.20;65.40;;;;;7.84;100.00;99448.28;6186864;28;96452;-57
2024/02/01 01:57:58;;;;;;;;;78.00;64.00;;;;;7.72;100.00;99441.75;6186637;28;96376;-57
2024/02/01 02:01:02;;;;;;;;;77.00;63.00;;;;;7.61;100.00;99439.59;6186476;28;97581;-58
2024/02/01 02:04:07;;;;;;;;;73.00;57.20;;;;;7.44;100.00;99418.50;6179326;22;96375;-57
2024/02/01 02:07:10;;;;;;;;;75.60;63.00;;;;;7.59;100.00;99425.50;6175920;28;96275;-57
2024/02/01 02:10:14;;;;;;;;;74.25;62.00;;;;;7.58;100.00;99406.91;6186210;28;96307;-57
2024/02/01 02:13:20;;;;;;;;;72.00;58.00;;;;;7.53;100.00;99410.16;6187314;28;96835;-57
2024/02/01 02:16:23;;;;;;;;;73.20;60.40;;;;;7.48;100.00;99407.22;6190136;28;96559;-57
2024/02/01 02:19:27;;;;;;;;;74.00;60.60;;;;;7.40;100.00;99405.50;6189890;28;96521;-57
2024/02/01 02:22:32;;;;;;;;;75.00;61.50;;;;;7.36;100.00;99395.31;6190257;28;96313;-57
2024/02/01 02:25:35;;;;;;;;;74.80;62.60;;;;;7.32;100.00;99388.69;6189341;28;96404;-57
2024/02/01 02:28:38;;;;;;;;;74.60;61.40;;;;;7.26;100.00;99392.94;6165451;28;96233;-57
2024/02/01 02:31:42;;;;;;;;;76.00;63.00;;;;;7.20;100.00;99390.19;6167206;28;96690;-57
2024/02/01 02:34:45;;;;;;;;;74.00;59.60;;;;;7.14;100.00;99380.19;6181608;28;96940;-57
2024/02/01 02:37:51;;;;;;;;;75.00;61.40;;;;;7.07;100.00;99374.75;6182083;28;96601;-60
2024/02/01 02:40:54;;;;;;;;;74.00;62.50;;;;;6.65;100.00;99316.47;6214815;28;96336;-59
2024/02/01 02:43:58;;;;;;;;;74.00;61.00;;;;;6.94;100.00;99362.00;6215580;28;96766;-60
2024/02/01 02:47:02;;;;;;;;;76.00;65.00;;;;;6.90;100.00;99351.84;6216270;28;96285;-59
2024/02/01 02:50:07;;;;;;;;;76.00;65.20;;;;;6.80;100.00;99345.94;6215401;28;96360;-59
2024/02/01 02:53:12;;;;;;;;;77.80;67.00;;;;;6.73;100.00;99342.38;6216759;28;96248;-59
2024/02/01 02:56:15;;;;;;;;;79.00;68.20;;;;;6.63;100.00;99336.44;6215670;28;96450;-60
2024/02/01 02:59:19;;;;;;;;;78.50;67.00;;;;;6.56;100.00;99333.66;6214558;28;96933;-59
2024/02/01 03:02:22;;;;;;;;;77.00;67.00;;;;;6.47;100.00;99324.91;6213355;28;96336;-60
2024/02/01 03:05:26;;;;;;;;;78.50;68.50;;;;;6.50;100.00;99327.22;6213637;28;96324;-59
2024/02/01 03:08:30;;;;;;;;;76.40;64.00;;;;;6.49;100.00;99317.53;6213999;28;96333;-61
2024/02/01 03:11:34;;;;;;;;;76.50;63.50;;;;;6.50;100.00;99307.63;6213614;28;96856;-60
2024/02/01 03:14:38;;;;;;;;;78.40;69.00;;;;;6.49;100.00;99314.03;6178608;28;98769;-61
2024/02/01 03:17:41;;;;;;;;;73.00;59.00;;;;;6.49;100.00;99305.97;6200252;28;97094;-57
2024/02/01 03:20:45;;;;;;;;;72.00;55.60;;;;;6.50;100.00;99302.25;6179958;28;98495;-60
2024/02/01 03:23:51;;;;;;;;;72.00;57.00;;;;;6.54;100.00;99306.25;6212550;28;96260;-60
2024/02/01 03:26:54;;;;;;;;;65.75;50.75;;;;;6.52;100.00;99305.59;6212215;28;96341;-61
2024/02/01 03:29:58;;;;;;;;;66.40;51.00;;;;;6.53;100.00;99297.38;6208052;28;96325;-60
2024/02/01 03:33:04;;;;;;;;;65.20;50.40;;;;;6.59;100.00;99311.88;6201684;28;96685;-58
2024/02/01 03:36:08;;;;;;;;;70.80;52.80;;;;;6.58;100.00;99296.00;6182736;28;96406;-59
2024/02/01 03:39:23;;;;;;;;;75.25;64.50;;;;;6.56;100.00;99322.97;6209769;28;96459;-59
2024/02/01 03:42:26;;;;;;;;;78.80;68.60;;;;;6.53;100.00;99326.84;6200735;28;96654;-58
2024/02/01 03:45:30;;;;;;;;;74.20;60.60;;;;;6.45;100.00;99318.09;6202885;28;96372;-58
2024/02/01 03:48:33;;;;;;;;;74.80;63.00;;;;;6.42;100.00;99319.28;6195507;28;96335;-57
2024/02/01 03:51:37;;;;;;;;;73.60;61.00;;;;;6.36;100.00;99336.06;6187917;28;96497;-57
2024/02/01 03:54:42;;;;;;;;;74.00;61.00;;;;;6.31;100.00;99327.75;6172188;28;96580;-57
2024/02/01 03:57:45;;;;;;;;;71.60;58.60;;;;;6.26;100.00;99314.09;6174917;28;97388;-56
2024/02/01 04:00:50;;;;;;;;;73.40;59.80;;;;;6.35;100.00;99330.91;6179140;28;97086;-57
2024/02/01 04:03:53;;;;;;;;;73.25;56.50;;;;;6.38;100.00;99344.75;6183142;28;96991;-57
2024/02/01 04:06:56;;;;;;;;;76.00;60.00;;;;;6.39;100.00;99346.44;6178932;28;96892;-57
2024/02/01 04:10:01;;;;;;;;;76.00;64.40;;;;;6.34;100.00;99339.97;6167465;28;97024;-57
2024/02/01 04:13:05;;;;;;;;;83.00;69.25;;;;;6.22;100.00;99320.81;6178552;28;96662;-57
2024/02/01 04:16:09;;;;;;;;;78.40;70.00;;;;;6.01;100.00;99312.69;6171820;28;96295;-57
2024/02/01 04:19:12;;;;;;;;;78.00;68.00;;;;;5.91;100.00;99301.41;6176531;28;96398;-57
2024/02/01 04:22:21;;;;;;;;;77.20;65.40;;;;;5.60;100.00;99248.81;6173598;28;96793;-57
2024/02/01 04:25:26;;;;;;;;;74.80;59.00;;;;;5.99;100.00;99309.34;6167409;28;96660;-57
2024/02/01 04:28:29;;;;;;;;;71.00;57.75;;;;;5.95;100.00;99306.22;6161862;28;96272;-57
2024/02/01 04:31:32;;;;;;;;;69.00;52.00;;;;;5.90;100.00;99305.94;6167655;28;96431;-57
2024/02/01 04:34:38;;;;;;;;;63.80;50.00;;;;;5.98;100.00;99302.34;6186314;28;96339;-57
2024/02/01 04:37:42;;;;;;;;;65.80;50.00;;;;;6.01;100.00;99278.72;6185891;28;96751;-57
2024/02/01 04:40:46;;;;;;;;;60.00;47.75;;;;;5.75;100.00;99223.94;6187443;28;97663;-57
2024/02/01 04:43:50;;;;;;;;;57.00;44.80;;;;;6.19;100.00;99269.50;6186113;28;96972;-57
2024/02/01 04:46:53;;;;;;;;;49.00;40.75;;;;;6.33;100.00;99280.22;6185169;28;97384;-58
2024/02/01 04:49:56;;;;;;;;;49.00;38.00;;;;;6.35;100.00;99269.34;6185269;28;96575;-57
2024/02/01 04:52:59;;;;;;;;;46.60;38.00;;;;;6.44;100.00;99269.03;6185450;28;96296;-57
2024/02/01 04:56:07;;;;;;;;;39.00;33.00;;;;;6.54;100.00;99266.09;6184962;28;96579;-57
2024/02/01 04:59:11;;;;;;;;;38.75;32.75;;;;;6.61;100.00;99264.28;6186976;28;96265;-57
2024/02/01 05:02:15;;;;;;;;;35.80;30.20;;;;;6.73;100.00;99265.50;6186428;28;96248;-57
2024/02/01 05:05:18;;;;;;;;;29.60;23.60;;;;;6.87;100.00;99264.63;6184951;28;96364;-59
2024/02/01 05:08:21;;;;;;;;;32.00;28.75;;;;;7.06;100.00;99273.06;6174185;28;96429;-57
2024/02/01 05:11:26;;;;;;;;;34.00;30.00;;;;;7.21;100.00;99281.91;6172584;28;96355;-57
2024/02/01 05:14:29;;;;;;;;;37.00;32.00;;;;;7.22;100.00;99280.88;6187116;28;98228;-57
2024/02/01 05:17:33;;;;;;;;;36.75;33.00;;;;;7.30;100.00;99280.75;6186566;28;96253;-57
2024/02/01 05:20:38;;;;;;;;;40.00;33.00;;;;;7.39;100.00;99282.28;6186848;28;96284;-57
2024/02/01 05:23:42;;;;;;;;;45.00;36.00;;;;;7.51;100.00;99285.28;6184767;28;96278;-57
2024/02/01 05:26:50;;;;;;;;;43.00;35.00;;;;;7.63;100.00;99292.63;6186049;28;96470;-57
2024/02/01 05:29:53;;;;;;;;;42.00;35.00;;;;;7.73;100.00;99294.97;6176773;28;96321;-57
2024/02/01 05:32:56;;;;;;;;;42.60;35.60;;;;;7.87;100.00;99301.31;6168333;28;96323;-57
2024/02/01 05:36:06;;;;;;;;;45.40;36.00;;;;;7.97;100.00;99302.59;6166575;28;96485;-56
2024/02/01 05:39:24;;;;;;;;;45.00;34.80;;;;;8.03;100.00;99285.72;6170924;28;96608;-58
2024/02/01 05:42:28;;;;;;;;;46.00;38.00;;;;;8.09;100.00;99287.63;6180808;28;96271;-57
2024/02/01 05:45:33;;;;;;;;;49.80;40.80;;;;;8.04;100.00;99284.69;6153394;28;99161;-57
2024/02/01 05:48:37;;;;;;;;;45.00;36.20;;;;;7.61;100.00;99210.66;6171405;28;96830;-57
2024/02/01 05:51:40;;;;;;;;;51.80;40.80;;;;;8.02;100.00;99289.41;6190949;28;96396;-57
2024/02/01 05:54:43;;;;;;;;;47.00;38.80;;;;;8.01;100.00;99287.78;6191067;28;96365;-57
2024/02/01 05:57:50;;;;;;;;;47.40;39.20;;;;;8.01;100.00;99281.59;6191063;28;96942;-57
2024/02/01 06:00:53;;;;;;;;;50.00;42.40;;;;;7.97;100.00;99272.22;6190627;28;97029;-56
2024/02/01 06:03:56;;;;;;;;;54.20;44.00;;;;;7.85;100.00;99282.69;6168021;28;96228;-57
2024/02/01 06:06:59;;;;;;;;;55.40;44.40;;;;;7.74;100.00;99277.84;6166348;28;96365;-57
2024/02/01 06:10:02;;;;;;;;;55.80;45.40;;;;;7.61;100.00;99286.63;6166575;28;96239;-57
2024/02/01 06:13:07;;;;;;;;;56.60;44.00;;;;;7.51;100.00;99282.59;6175108;28;96463;-57
2024/02/01 06:16:11;;;;;;;;;57.00;45.00;;;;;7.45;100.00;99275.31;6185288;28;96475;-57
2024/02/01 06:19:14;;;;;;;;;53.80;44.60;;;;;7.47;100.00;99284.03;6189522;28;96878;-57
2024/02/01 06:22:18;;;;;;;;;54.60;43.00;;;;;7.47;100.00;99275.97;6189253;28;96938;-57
2024/02/01 06:25:21;;;;;;;;;45.00;37.00;;;;;7.53;100.00;99284.06;6189699;28;96494;-57
2024/02/01 06:28:27;;;;;;;;;46.50;37.25;;;;;7.61;100.00;99283.13;6166612;28;96406;-57
2024/02/01 06:31:30;;;;;;;;;50.00;38.25;;;;;7.63;100.00;99273.84;6180586;28;96377;-58
2024/02/01 06:34:39;;;;;;;;;47.00;36.50;;;;;7.79;100.00;99278.09;6170145;28;96251;-58
2024/02/01 06:37:43;;;;;;;;;41.60;34.40;;;;;7.87;100.00;99279.81;6166585;28;96819;-56
2024/02/01 06:41:06;;;;;;;;;40.50;33.50;;;;;8.01;100.00;99270.84;6185078;28;96527;-57
2024/02/01 06:44:21;;;;;;;;;38.50;33.00;;;;;8.19;100.00;99266.63;6182739;28;97516;-58
2024/02/01 06:47:35;;;;;;;;;40.20;33.00;;;;;8.45;100.00;99263.31;6172800;28;96803;-58
2024/02/01 06:50:54;;;;;;;;;44.75;37.00;;;;;8.72;100.00;99264.25;6163991;28;96470;-57
2024/02/01 06:54:05;;;;;;;;;46.00;38.60;;;;;8.93;100.00;99260.59;6180410;28;96427;-57
2024/02/01 06:57:18;;;;;;;;;46.60;36.60;;;;;9.15;100.00;99256.72;6189140;28;96899;-58
2024/02/01 07:03:51;;;;;;;;;46.25;37.75;;;;;9.82;100.00;99240.41;6172970;28;96840;-56
2024/02/01 07:07:05;;;;;;;;;45.00;38.00;;;;;10.19;100.00;99227.34;6182750;28;97147;-57
2024/02/01 07:10:16;;;;;;;;;43.40;35.40;;;;;10.57;100.00;99220.19;6172737;28;96977;-57
2024/02/01 07:13:34;;;;;;;;;39.20;33.00;;;;;11.08;100.00;99220.16;6186893;28;96560;-58
2024/02/01 07:16:54;;;;;;;;;36.20;32.00;;;;;11.47;100.00;99218.22;6190057;28;97238;-57
2024/02/01 07:19:57;;;;;;;;;33.50;30.00;;;;;11.72;100.00;99216.34;6165806;28;96358;-58
2024/02/01 07:23:33;;;;;;;;;38.50;33.00;;;;;11.91;100.00;99223.47;6164299;28;96326;-58
2024/02/01 07:26:43;;;;;;;;;33.00;30.00;;;;;12.04;100.00;99211.72;6186384;28;96327;-58
2024/02/01 08:00:02;;;;;;;;;31.00;30.00;;;;;12.49;100.00;99196.03;6176098;28;96352;-57
2024/02/01 08:03:32;;;;;;;;;30.60;28.00;;;;;12.47;100.00;99203.53;6167983;28;96986;-57
2024/02/01 08:09:57;;;;;;;;;35.60;31.00;;;;;12.59;100.00;99202.56;6158174;28;96272;-57
2024/02/01 08:13:07;;;;;;;;;32.00;29.00;;;;;12.91;100.00;99207.75;6142178;28;96981;-57
2024/02/01 08:16:17;;;;;;;;;34.00;31.25;;;;;13.31;100.00;99199.94;6155123;28;96396;-58
2024/02/01 08:19:20;;;;;;;;;39.00;33.00;;;;;13.45;100.00;99198.66;6153036;28;96402;-57
2024/02/01 08:22:43;;;;;;;;;42.00;35.00;;;;;13.61;100.00;99195.28;6144462;28;96900;-58
2024/02/01 08:25:47;;;;;;;;;37.00;32.00;;;;;14.03;100.00;99189.75;6139502;28;98555;-58
2024/02/01 08:28:50;;;;;;;;;34.80;32.00;;;;;14.55;100.00;99186.06;6156573;28;96569;-59
2024/02/01 08:31:54;;;;;;;;;36.40;30.20;;;;;14.51;99.44;99192.22;6186968;28;96190;-58
2024/02/01 08:34:57;;;;;;;;;35.80;31.00;;;;;14.50;100.00;99191.41;6186398;28;97485;-60
2024/02/01 08:38:02;;;;;;;;;33.00;30.00;;;;;14.30;100.00;99196.34;6188234;28;96366;-60
2024/02/01 08:41:06;;;;;;;;;39.75;32.00;;;;;13.98;100.00;99198.59;6186655;28;96477;-59
2024/02/01 08:44:09;;;;;;;;;35.00;31.20;;;;;13.54;100.00;99207.28;6185338;28;96361;-60
2024/02/01 08:47:13;;;;;;;;;30.40;28.00;;;;;13.24;100.00;99208.16;6162271;28;97163;-58
2024/02/01 08:50:17;;;;;;;;;30.40;27.00;;;;;12.83;100.00;99217.03;6171228;28;96292;-58
2024/02/01 08:53:22;;;;;;;;;33.00;28.40;;;;;12.62;100.00;99216.69;6182740;28;96901;-58
2024/02/01 08:56:36;;;;;;;;;33.00;30.00;;;;;12.27;100.00;99195.66;6171201;28;96385;-59
2024/02/01 08:59:40;;;;;;;;;30.60;28.40;;;;;12.25;100.00;99205.06;6178421;28;96372;-59
2024/02/01 09:02:44;;;;;;;;;29.00;27.00;;;;;12.15;100.00;99211.81;6172653;28;96384;-59
2024/02/01 09:05:49;;;;;;;;;31.60;28.20;;;;;12.15;100.00;99210.97;6175622;28;96488;-60
2024/02/01 09:08:54;;;;;;;;;34.80;30.40;;;;;12.08;100.00;99208.34;6185419;28;96241;-57
2024/02/01 09:11:57;;;;;;;;;30.00;28.25;;;;;12.27;100.00;99225.38;6172748;28;96353;-60
2024/02/01 09:15:00;;;;;;;;;30.20;28.80;;;;;12.32;100.00;99216.59;6185680;28;96341;-60
2024/02/01 09:18:04;;;;;;;;;29.20;26.80;;;;;12.46;100.00;99216.22;6184635;28;96412;-60
2024/02/01 09:21:07;;;;;;;;;29.00;27.00;;;;;12.54;100.00;99205.13;6172987;28;96305;-60
2024/02/01 09:24:12;;;;;;;;;27.60;26.60;;;;;12.48;100.00;99188.97;6165778;28;96994;-62
2024/02/01 09:27:15;;;;;;;;;29.50;26.50;;;;;12.67;100.00;99214.94;6177920;28;96437;-60
2024/02/01 09:30:19;;;;;;;;;29.40;25.40;;;;;12.57;100.00;99207.38;6179553;28;96326;-60
2024/02/01 09:33:34;;;;;;;;;30.60;27.20;;;;;12.61;100.00;99218.56;6180896;28;96348;-60
2024/02/01 09:36:38;;;;;;;;;28.60;27.00;;;;;12.72;100.00;99220.50;6178943;28;97029;-60
2024/02/01 09:39:42;;;;;;;;;30.00;26.00;;;;;12.92;100.00;99223.78;6173771;28;96376;-54
2024/02/01 09:42:47;;;;;;;;;19.00;19.00;;;;;13.10;100.00;99212.06;6147329;28;96444;-54
2024/02/01 09:45:51;;;;;;;;;25.00;20.75;;;;;13.41;100.00;99219.16;6142727;28;96403;-54
2024/02/01 09:48:56;;;;;;;;;22.00;20.50;;;;;13.77;100.00;99218.16;6153970;28;96374;-54
2024/02/01 09:52:00;;;;;;;;;24.20;22.80;;;;;14.76;100.00;99206.28;6167691;28;96323;-54
2024/02/01 09:55:07;;;;;;;;;24.50;21.00;;;;;16.36;100.00;99208.50;6167521;28;96304;-54
2024/02/01 09:58:11;;;;;;;;;24.00;21.40;;;;;17.50;92.02;99212.00;6150481;28;98846;-54
2024/02/01 10:01:14;;;;;;;;;21.20;18.20;;;;;17.33;87.43;99203.13;6168066;28;96334;-54
2024/02/01 10:04:17;;;;;;;;;20.60;19.00;;;;;16.89;89.95;99210.56;6168148;28;96493;-54
2024/02/01 10:07:26;;;;;;;;;22.00;20.00;;;;;16.21;92.77;99202.84;6163617;28;96982;-54
2024/02/01 10:10:30;;;;;;;;;21.20;19.40;;;;;15.40;95.43;99196.91;6143636;28;96356;-54
2024/02/01 10:13:35;;;;;;;;;26.00;22.00;;;;;14.68;100.00;99196.66;6159001;28;96273;-54
2024/02/01 10:16:38;;;;;;;;;22.80;21.20;;;;;13.94;100.00;99175.75;6147145;28;96382;-53
2024/02/01 10:19:42;;;;;;;;;24.00;21.00;;;;;13.60;100.00;99220.72;6143941;28;97015;-54
2024/02/01 10:22:57;;;;;;;;;21.00;20.00;;;;;13.26;100.00;99205.22;6154546;28;96382;-54
2024/02/01 10:26:01;;;;;;;;;19.60;17.00;;;;;12.96;100.00;99203.31;6167402;28;96362;-54
2024/02/01 10:29:07;;;;;;;;;22.25;18.25;;;;;12.72;100.00;99215.09;6166989;28;96315;-53
2024/02/01 10:32:15;;;;;;;;;19.00;18.00;;;;;12.50;100.00;99219.34;6167152;28;96387;-53
2024/02/01 10:35:20;;;;;;;;;22.60;18.60;;;;;12.26;100.00;99229.16;6169439;28;96892;-54
2024/02/01 10:38:24;;;;;;;;;20.00;18.50;;;;;11.98;100.00;99231.50;6153552;28;98653;-53
2024/02/01 10:41:33;;;;;;;;;19.75;17.00;;;;;11.68;100.00;99229.44;6171119;28;96345;-53
2024/02/01 10:44:41;;;;;;;;;19.50;19.50;;;;;11.53;100.00;99226.25;6171486;28;96393;-53
2024/02/01 10:47:48;;;;;;;;;19.40;15.80;;;;;11.50;100.00;99236.66;6171462;28;96139;-53
2024/02/01 10:50:53;;;;;;;;;20.50;19.50;;;;;11.38;100.00;99217.66;6166197;28;96877;-58
2024/02/01 10:53:57;;;;;;;;;19.25;18.00;;;;;11.29;100.00;99218.94;6165618;28;96408;-58
2024/02/01 10:57:05;;;;;;;;;21.00;19.00;;;;;11.32;100.00;99221.22;6147875;28;96890;-58
2024/02/01 11:00:19;;;;;;;;;21.60;19.00;;;;;11.14;100.00;99221.16;6165348;28;96289;-58
2024/02/01 11:03:27;;;;;;;;;24.00;21.00;;;;;11.10;100.00;99218.03;6162576;28;96303;-58
2024/02/01 11:06:31;;;;;;;;;24.00;21.40;;;;;11.01;100.00;99211.25;6165044;28;97783;-58
2024/02/01 11:09:42;;;;;;;;;23.67;21.00;;;;;10.93;100.00;99216.06;6157838;28;96438;-57
2024/02/01 11:12:51;;;;;;;;;25.25;24.25;;;;;10.91;100.00;99213.59;6147831;28;96251;-57
2024/02/01 11:15:55;;;;;;;;;21.00;19.00;;;;;10.77;100.00;99202.03;6164996;28;96649;-57
2024/02/01 11:18:58;;;;;;;;;23.80;21.80;;;;;10.73;100.00;99200.00;6163387;28;96531;-57
2024/02/01 11:22:04;;;;;;;;;23.00;22.60;;;;;10.84;100.00;99218.19;6140464;28;96830;-57
2024/02/01 11:25:08;;;;;;;;;25.80;22.00;;;;;10.88;100.00;99210.50;6164906;28;96397;-57
2024/02/01 11:28:27;;;;;;;;;25.00;23.00;;;;;10.76;100.00;99207.63;6151629;28;97009;-57
2024/02/01 11:31:30;;;;;;;;;27.40;25.40;;;;;10.64;100.00;99202.13;6141335;28;96480;-57
2024/02/01 11:34:52;;;;;;;;;28.40;24.40;;;;;10.72;100.00;99209.94;6144166;28;96279;-58
2024/02/01 11:38:01;;;;;;;;;25.00;23.00;;;;;10.80;100.00;99216.94;6158439;28;96958;-57
2024/02/01 11:41:05;;;;;;;;;28.40;26.00;;;;;10.77;100.00;99209.31;6164606;28;96515;-57
2024/02/01 11:44:09;;;;;;;;;28.75;26.75;;;;;10.69;100.00;99215.78;6163748;28;97585;-57
2024/02/01 11:47:12;;;;;;;;;30.00;27.40;;;;;10.50;100.00;99207.78;6163957;28;96425;-57
2024/02/01 11:50:16;;;;;;;;;28.25;25.25;;;;;10.51;100.00;99207.53;6152481;28;96386;-58
2024/02/01 11:53:19;;;;;;;;;26.20;24.40;;;;;10.56;100.00;99205.03;6160094;28;97004;-58
2024/02/01 11:56:22;;;;;;;;;31.40;27.40;;;;;10.50;100.00;99210.47;6160929;28;96470;-57
2024/02/01 11:59:27;;;;;;;;;30.75;29.00;;;;;10.51;100.00;99204.00;6161495;28;96628;-58
2024/02/01 12:02:30;;;;;;;;;29.80;28.40;;;;;10.46;100.00;99195.78;6163586;28;96269;-57
2024/02/01 12:05:33;;;;;;;;;32.60;27.60;;;;;10.46;100.00;99195.78;6159958;28;97153;-57
2024/02/01 12:08:37;;;;;;;;;30.20;28.60;;;;;10.51;100.00;99202.16;6161591;28;96267;-57
2024/02/01 12:11:41;;;;;;;;;32.00;29.40;;;;;10.53;100.00;99207.34;6140842;28;96865;-58
2024/02/01 12:14:46;;;;;;;;;31.00;28.00;;;;;10.59;100.00;99191.16;6132390;28;96368;-57
2024/02/01 12:17:50;;;;;;;;;33.50;30.00;;;;;10.49;100.00;99192.63;6140407;28;96345;-57
2024/02/01 12:20:54;;;;;;;;;35.00;30.00;;;;;10.52;100.00;99198.41;6161343;28;96371;-58
2024/02/01 12:23:58;;;;;;;;;36.00;32.00;;;;;10.53;100.00;99186.59;6163700;28;96341;-57
2024/02/01 12:27:02;;;;;;;;;33.00;30.20;;;;;10.35;100.00;99183.78;6156042;28;97206;-57
2024/02/01 12:30:11;;;;;;;;;35.25;31.00;;;;;10.37;100.00;99179.81;6163254;28;96986;-58
2024/02/01 12:33:14;;;;;;;;;34.40;32.00;;;;;10.41;100.00;99178.34;6161233;28;97014;-58
2024/02/01 12:36:19;;;;;;;;;32.33;30.00;;;;;10.43;100.00;99178.16;6163673;28;96878;-57
2024/02/01 12:39:22;;;;;;;;;32.20;30.00;;;;;10.46;100.00;99174.22;6142564;28;96529;-57
2024/02/01 12:42:27;;;;;;;;;33.60;29.60;;;;;10.59;100.00;99166.06;6155560;28;96165;-57
2024/02/01 12:45:32;;;;;;;;;32.00;29.00;;;;;10.53;100.00;99165.03;6141655;28;96400;-58
2024/02/01 12:48:37;;;;;;;;;27.50;25.00;;;;;10.58;100.00;99162.53;6127298;28;98391;-57
2024/02/01 12:51:41;;;;;;;;;27.20;25.00;;;;;10.69;100.00;99169.13;6138979;28;96334;-57
2024/02/01 12:54:45;;;;;;;;;29.60;28.40;;;;;10.73;100.00;99173.84;6139490;28;96901;-57
2024/02/01 12:57:48;;;;;;;;;23.00;22.00;;;;;10.70;100.00;99160.00;6138229;28;97565;-57
2024/02/01 13:00:53;;;;;;;;;29.00;25.00;;;;;10.53;100.00;99166.91;6138770;28;97645;-57
2024/02/01 13:03:56;;;;;;;;;29.75;26.00;;;;;10.40;100.00;99171.31;6137857;28;96460;-57
2024/02/01 13:07:00;;;;;;;;;24.67;23.67;;;;;10.40;100.00;99175.88;6139274;28;96912;-57
2024/02/01 13:10:09;;;;;;;;;25.40;24.00;;;;;10.24;100.00;99165.56;6121607;28;96378;-57
2024/02/01 13:13:12;;;;;;;;;24.75;22.00;;;;;10.42;100.00;99179.19;6138989;28;97367;-57
2024/02/01 13:16:17;;;;;;;;;22.60;21.60;;;;;10.22;100.00;99181.09;6138673;28;96573;-57
2024/02/01 13:19:20;;;;;;;;;26.00;26.00;;;;;10.30;100.00;99187.13;6138623;28;96396;-57
2024/02/01 13:22:24;;;;;;;;;27.00;23.40;;;;;10.45;100.00;99170.69;6138462;28;96415;-57
2024/02/01 13:25:27;;;;;;;;;26.00;23.00;;;;;10.41;100.00;99175.66;6138618;28;96529;-57
2024/02/01 13:28:31;;;;;;;;;26.00;22.40;;;;;10.35;100.00;99170.31;6138510;28;96513;-57
2024/02/01 13:31:38;;;;;;;;;27.80;23.00;;;;;10.45;100.00;99165.28;6138506;28;96441;-58
2024/02/01 13:34:43;;;;;;;;;27.00;23.50;;;;;10.45;100.00;99173.38;6120888;28;96544;-57
2024/02/01 13:37:47;;;;;;;;;25.40;23.40;;;;;10.45;100.00;99172.53;6144234;28;97542;-58
2024/02/01 13:40:50;;;;;;;;;25.75;23.75;;;;;10.47;100.00;99156.97;6161746;28;96436;-58
2024/02/01 13:43:53;;;;;;;;;22.00;21.00;;;;;10.59;100.00;99166.06;6161694;28;96339;-57
2024/02/01 13:47:00;;;;;;;;;26.60;24.40;;;;;10.64;100.00;99171.63;6155043;28;96563;-57
2024/02/01 13:50:05;;;;;;;;;21.20;20.60;;;;;10.59;100.00;99179.53;6138252;28;96537;-59
2024/02/01 13:53:09;;;;;;;;;24.20;21.20;;;;;10.66;100.00;99180.31;6150796;28;96628;-58
2024/02/01 13:56:12;;;;;;;;;23.60;21.60;;;;;10.61;100.00;99170.16;6154235;28;96372;-58
2024/02/01 13:59:15;;;;;;;;;23.50;22.00;;;;;10.47;100.00;99183.94;6157648;28;96430;-58
2024/02/01 14:02:19;;;;;;;;;23.60;22.00;;;;;10.37;100.00;99171.72;6136540;28;96348;-58
2024/02/01 14:05:24;;;;;;;;;25.00;24.00;;;;;10.47;100.00;99178.53;6159436;28;96499;-58
2024/02/01 14:08:27;;;;;;;;;20.00;19.00;;;;;10.31;100.00;99186.06;6159830;28;96446;-58
2024/02/01 14:11:38;;;;;;;;;21.60;21.00;;;;;10.40;100.00;99186.66;6159431;28;96915;-58
2024/02/01 14:14:41;;;;;;;;;21.00;19.00;;;;;10.38;100.00;99184.16;6130433;28;98434;-58
2024/02/01 14:17:46;;;;;;;;;22.00;21.00;;;;;10.39;100.00;99188.53;6164184;28;96390;-57
2024/02/01 14:20:49;;;;;;;;;24.40;21.40;;;;;10.38;100.00;99197.66;6174370;28;98115;-60
2024/02/01 14:23:53;;;;;;;;;22.00;20.40;;;;;10.36;100.00;99194.31;6180544;28;96234;-59
2024/02/01 14:26:56;;;;;;;;;23.00;22.00;;;;;10.29;100.00;99200.78;6177265;28;96387;-61
2024/02/01 14:29:59;;;;;;;;;19.67;19.00;;;;;10.40;100.00;99202.84;6185613;28;97525;-59
2024/02/01 14:33:04;;;;;;;;;20.00;19.20;;;;;10.39;100.00;99198.47;6172574;28;96415;-60
2024/02/01 14:36:08;;;;;;;;;19.60;19.00;;;;;10.28;100.00;99218.81;6183439;28;96299;-60
2024/02/01 14:39:21;;;;;;;;;21.60;19.60;;;;;10.23;100.00;99207.03;6165504;28;97166;-59
2024/02/01 14:42:25;;;;;;;;;25.00;21.00;;;;;10.33;100.00;99200.16;6179308;28;97376;-60
2024/02/01 14:45:31;;;;;;;;;24.40;20.80;;;;;10.14;100.00;99190.22;6169837;28;97295;-60